« Back
NWS Peachtree City, Ga » Text Product » MCN Terminal Aerodrome Forecast


Printer-friendly Version
Current Version              Previous Versions:   1  2  3  4  5  6  7  8  9  

Terminal Aerodrome Forecast

094
FTUS42 KFFC 102332
TAFMCN
TAF
KMCN 102332Z 1100/1124 29012G17KT P6SM SCT100
     FM110200 28005KT P6SM SCT100
     FM110600 27004KT P6SM SCT250
     FM111500 27006KT P6SM SCT050
     FM112300 32005KT P6SM BKN100=



USA.gov is the U.S. government's official web portal to all federal, state and local government web resources and services.